Главная страница
METAR-TAF:

METAR-TAF

Аэропорты :

Эрсилиу Лус

Флорианополис, Санта-Катарина, Бразилия

широта: 27-40S, долгота: 048-33W, высота над уровнем моря: 5 м

Текущие метеонаблюдения

Эта сводка был подготовлена 59 минут назад, в 09:00 UTC
Ветер 6 Узел от северный
Температура 23°C
Влажность 94%
Давление 1012 hPa
Видимость 10 км и более
Нет облачности ниже 1500 м, и нет кучево-дождевой облачности

METAR: SBFL 250900Z 35006KT CAVOK 23/22 Q1012

Время: 06:59 (09:59 UTC)

Прогноз

Эта сводка был подготовлена 6 часа и 59 минут назад, в 03:00 UTC
Прогноз действительный с 25-го 06 UTC до 26-го 06 UTC
Ветер 7 Узел от северный
Видимость 10 км и более
небольшая облачность на высоте 3000 фута
изменения
С 25-го 22 UTC до 25-го 24 UTC
Ветер 10 Узел от южный
Отдельные облака на высоте 2500 фута

TAF: SBFL 250300Z 2506/2606 01007KT 9999 FEW030 TN21/2508Z TX29/2518Z BECMG 2522/2524 17010KT SCT025 RMK PER

Метеонаблюдения и прогнозы для более 4000 аэропортов (сводки METAR и TAF).

Имеющиеся станции представлены на карте желтыми и красными точками.

Чтобы увидеть название станции, наведите на нее мышь.

Затем щелкните, чтобы увидеть метеонаблюдения и метеопрогнозы.

Управление картой: чтобы увеличить масштаб, щелкните зеленые кнопки с черным крестиком; чтобы уменьшить масштаб, щелкните зеленую кнопку с тире; для просмотра соседних карт щелкайте зеленые стрелки.


METAR-TAF: